Time;durP1;ratioP1;P1;durP2;ratioP2;P2;SDS_P1;SDS_P2;PMS_P1;PMS_P2;Temp;Humidity;BMP_temperature;BMP_pressure;BME280_temperature;BME280_humidity;BME280_pressure;Samples;Min_cycle;Max_cycle;Signal;HPM_P1;HPM_P2
2023/04/23 00:01:34;;;;;;;;;24.25;23.00;;;;;13.74;36.23;99131.94;5082135;28;8870;-75
2023/04/23 00:04:05;;;;;;;;;22.25;19.00;;;;;13.74;36.11;99127.50;5090507;28;8843;-76
2023/04/23 00:06:36;;;;;;;;;26.50;23.75;;;;;13.59;36.65;99125.50;5046206;28;8878;-76
2023/04/23 00:09:06;;;;;;;;;26.00;24.75;;;;;13.68;36.27;99128.63;5046743;28;8842;-75
2023/04/23 00:11:37;;;;;;;;;26.25;25.50;;;;;13.68;36.56;99131.25;5048849;28;8874;-75
2023/04/23 00:14:07;;;;;;;;;24.50;22.75;;;;;13.72;36.45;99129.38;5049519;28;8852;-75
2023/04/23 00:16:36;;;;;;;;;28.25;25.25;;;;;13.80;36.29;99127.28;5066490;28;8998;-75
2023/04/23 00:19:05;;;;;;;;;23.60;22.40;;;;;13.88;35.58;99126.97;5017619;28;8956;-76
2023/04/23 00:21:34;;;;;;;;;21.80;21.80;;;;;13.88;35.74;99129.63;5065293;28;8874;-77
2023/04/23 00:24:03;;;;;;;;;23.00;21.50;;;;;14.01;35.49;99120.25;5046097;28;8834;-74
2023/04/23 00:26:32;;;;;;;;;30.50;27.00;;;;;13.94;36.05;99132.03;5030302;28;8878;-75
2023/04/23 00:29:02;;;;;;;;;36.25;31.75;;;;;13.86;36.53;99124.38;5030129;28;8943;-74
2023/04/23 00:31:31;;;;;;;;;32.00;30.25;;;;;14.05;36.14;99124.50;5030489;28;8862;-78
2023/04/23 00:34:00;;;;;;;;;33.25;31.00;;;;;14.15;36.25;99127.63;5030305;28;9623;-75
2023/04/23 00:36:29;;;;;;;;;31.50;30.75;;;;;14.23;35.97;99122.00;5030386;28;8854;-75
2023/04/23 00:38:58;;;;;;;;;27.25;27.25;;;;;14.26;35.73;99128.03;5028884;28;9473;-75
2023/04/23 00:41:28;;;;;;;;;31.25;29.25;;;;;14.27;35.77;99127.06;5029886;28;8834;-75
2023/04/23 00:43:58;;;;;;;;;25.00;25.00;;;;;14.29;35.75;99127.88;5047195;28;9607;-74
2023/04/23 00:46:28;;;;;;;;;27.75;25.00;;;;;14.18;35.94;99127.47;5067220;28;8858;-75
2023/04/23 00:48:58;;;;;;;;;26.75;26.50;;;;;14.16;35.90;99126.69;5068613;28;8961;-74
2023/04/23 00:51:28;;;;;;;;;28.25;26.25;;;;;14.16;35.96;99134.59;5083483;28;8908;-74
2023/04/23 00:53:57;;;;;;;;;28.25;23.00;;;;;14.14;36.01;99130.31;5088198;28;8863;-74
2023/04/23 00:56:28;;;;;;;;;24.60;23.40;;;;;14.07;36.29;99127.06;5070671;28;8863;-77
2023/04/23 00:58:57;;;;;;;;;23.00;23.00;;;;;14.07;36.11;99124.41;5087691;28;8859;-74
2023/04/23 01:01:27;;;;;;;;;26.75;24.25;;;;;14.03;36.32;99128.97;5088313;28;8839;-75
2023/04/23 01:03:58;;;;;;;;;23.50;21.25;;;;;13.99;36.40;99135.31;5070979;28;8848;-74
2023/04/23 01:06:28;;;;;;;;;27.50;25.25;;;;;13.98;36.32;99122.16;5086793;28;8896;-77
2023/04/23 01:08:58;;;;;;;;;23.75;23.25;;;;;13.98;36.30;99130.09;5081269;28;8908;-75
2023/04/23 01:11:27;;;;;;;;;27.50;24.75;;;;;14.00;36.28;99126.47;5050095;28;9008;-74
2023/04/23 01:13:56;;;;;;;;;26.00;23.80;;;;;14.03;36.23;99131.63;5028700;28;8890;-75
2023/04/23 01:16:25;;;;;;;;;10.00;9.00;;;;;14.05;35.97;99128.91;5035948;28;9639;-74
2023/04/23 01:18:55;;;;;;;;;23.00;21.20;;;;;14.01;36.22;99129.97;5087388;28;9700;-74
2023/04/23 01:21:26;;;;;;;;;2.25;2.00;;;;;13.99;36.13;99134.47;5088363;28;8860;-76
2023/04/23 01:23:56;;;;;;;;;18.00;16.40;;;;;13.98;36.03;99130.97;5086270;28;8850;-77
2023/04/23 01:26:25;;;;;;;;;26.25;23.00;;;;;13.98;36.16;99122.16;5049725;28;8878;-76
2023/04/23 01:28:55;;;;;;;;;22.75;21.25;;;;;14.01;36.42;99129.97;5067800;28;8854;-75
2023/04/23 01:31:24;;;;;;;;;28.50;24.50;;;;;14.01;36.21;99129.97;5068022;28;8842;-74
2023/04/23 01:33:54;;;;;;;;;28.00;25.50;;;;;13.96;36.61;99130.19;5082954;28;9623;-75
2023/04/23 01:36:23;;;;;;;;;24.40;24.00;;;;;13.98;36.64;99132.72;5058185;28;8894;-75
2023/04/23 01:38:53;;;;;;;;;26.75;25.00;;;;;13.92;36.78;99133.00;5067137;28;8842;-76
2023/04/23 01:41:23;;;;;;;;;22.00;21.00;;;;;13.93;36.16;99126.78;5083218;28;8850;-75
2023/04/23 01:43:52;;;;;;;;;24.50;24.50;;;;;13.94;36.71;99136.44;5068409;28;8913;-76
2023/04/23 01:46:21;;;;;;;;;30.00;27.00;;;;;13.93;36.69;99135.56;5026518;28;8989;-75
2023/04/23 01:48:50;;;;;;;;;25.00;24.50;;;;;13.92;36.64;99127.72;5083379;28;8884;-75
2023/04/23 01:51:19;;;;;;;;;25.50;23.50;;;;;13.87;36.75;99128.75;5086818;28;8855;-75
2023/04/23 01:53:48;;;;;;;;;21.00;19.25;;;;;13.78;37.04;99128.25;5078259;28;8965;-74
2023/04/23 01:56:22;;;;;;;;;24.20;23.40;;;;;13.75;37.20;99131.00;5066045;28;8873;-74
2023/04/23 01:58:53;;;;;;;;;28.50;26.25;;;;;13.66;37.27;99125.19;5101985;28;8851;-76
2023/04/23 02:01:21;;;;;;;;;24.40;23.20;;;;;13.60;37.06;99124.56;5067987;28;8844;-74
2023/04/23 02:03:50;;;;;;;;;23.25;22.75;;;;;13.58;37.28;99124.66;5086250;28;8874;-77
2023/04/23 02:06:19;;;;;;;;;26.50;26.50;;;;;13.52;37.72;99124.88;5064377;28;9025;-75
2023/04/23 02:08:48;;;;;;;;;31.25;27.50;;;;;13.50;37.61;99117.00;5063696;28;8867;-74
2023/04/23 02:11:17;;;;;;;;;31.00;27.00;;;;;13.51;37.58;99131.09;5047979;28;8901;-75
2023/04/23 02:13:46;;;;;;;;;26.25;26.25;;;;;13.53;37.59;99128.41;5064708;28;8832;-74
2023/04/23 02:16:16;;;;;;;;;27.50;26.00;;;;;13.56;37.71;99130.88;5081432;28;9042;-74
2023/04/23 02:18:45;;;;;;;;;17.50;16.75;;;;;13.58;37.36;99122.00;5063833;28;8843;-76
2023/04/23 02:21:14;;;;;;;;;31.75;27.75;;;;;13.56;37.57;99130.88;5064144;28;8829;-77
2023/04/23 02:23:43;;;;;;;;;24.75;24.75;;;;;13.56;37.79;99121.19;5042399;28;9604;-74
2023/04/23 02:26:11;;;;;;;;;30.80;24.40;;;;;13.56;37.76;99120.31;4978596;28;8862;-73
2023/04/23 02:28:40;;;;;;;;;24.00;23.75;;;;;13.53;37.98;99126.59;5027873;28;8889;-74
2023/04/23 02:31:09;;;;;;;;;26.60;26.60;;;;;13.51;37.94;99120.53;5044501;28;8923;-75
2023/04/23 02:33:42;;;;;;;;;32.00;31.75;;;;;13.53;38.47;99117.84;5028113;28;8861;-75
2023/04/23 02:36:11;;;;;;;;;31.00;29.75;;;;;13.48;38.33;99121.50;5044760;28;8964;-73
2023/04/23 02:38:41;;;;;;;;;27.25;27.25;;;;;13.48;38.44;99125.91;5067602;28;8855;-75
2023/04/23 02:41:10;;;;;;;;;25.25;25.25;;;;;13.41;38.07;99117.41;5064505;28;8868;-76
2023/04/23 02:43:39;;;;;;;;;27.50;24.50;;;;;13.40;38.09;99118.31;5064346;28;8832;-76
2023/04/23 02:46:08;;;;;;;;;28.75;27.75;;;;;13.39;38.39;99126.28;5050683;28;9524;-73
2023/04/23 02:48:39;;;;;;;;;27.00;26.00;;;;;13.37;38.82;99123.69;5067402;28;9000;-75
2023/04/23 02:51:12;;;;;;;;;24.25;22.25;;;;;13.35;38.30;99122.03;5084851;28;8857;-75
2023/04/23 02:53:41;;;;;;;;;27.40;27.40;;;;;13.31;38.29;99118.66;5069691;28;8859;-75
2023/04/23 02:56:10;;;;;;;;;22.60;21.00;;;;;13.27;38.32;99119.69;5065623;28;9962;-74
2023/04/23 02:58:39;;;;;;;;;24.20;24.20;;;;;13.24;38.14;99115.41;5048743;28;8838;-77
2023/04/23 03:01:08;;;;;;;;;26.60;23.40;;;;;13.19;38.45;99106.81;5071925;28;8851;-76
2023/04/23 03:03:37;;;;;;;;;22.80;22.80;;;;;13.23;38.27;99112.81;5069077;28;8843;-75
2023/04/23 03:06:07;;;;;;;;;25.40;24.20;;;;;13.19;38.19;99109.44;5102369;28;8864;-75
2023/04/23 03:08:37;;;;;;;;;22.60;21.80;;;;;13.13;38.35;99120.25;5096963;28;8842;-74
2023/04/23 03:11:06;;;;;;;;;23.75;23.00;;;;;13.04;38.48;99110.91;5066698;28;8946;-74
2023/04/23 03:13:35;;;;;;;;;22.60;21.60;;;;;13.03;38.47;99119.72;5053577;28;8858;-74
2023/04/23 03:16:03;;;;;;;;;19.20;18.60;;;;;13.07;38.35;99113.44;5054689;28;8855;-74
2023/04/23 03:18:32;;;;;;;;;20.20;20.20;;;;;13.07;38.08;99109.91;5089279;28;8855;-76
2023/04/23 03:21:01;;;;;;;;;24.25;23.75;;;;;13.12;38.49;99114.09;5089065;28;8878;-74
2023/04/23 03:23:30;;;;;;;;;24.60;22.60;;;;;13.07;38.39;99116.06;5087910;28;9992;-76
2023/04/23 03:26:01;;;;;;;;;20.40;18.60;;;;;13.09;38.15;99115.97;5089118;28;8883;-75
2023/04/23 03:28:30;;;;;;;;;26.80;26.20;;;;;13.04;38.52;99113.53;5089433;28;9574;-76
2023/04/23 03:30:59;;;;;;;;;20.80;19.40;;;;;13.08;37.91;99112.50;5109795;28;8867;-74
2023/04/23 03:33:28;;;;;;;;;15.00;15.00;;;;;13.12;38.06;99111.44;5083474;28;8960;-76
2023/04/23 03:35:57;;;;;;;;;25.00;24.25;;;;;13.12;38.18;99115.88;5089846;28;8890;-75
2023/04/23 03:38:30;;;;;;;;;20.25;19.50;;;;;13.06;38.06;99113.47;5075516;28;8842;-74
2023/04/23 03:41:01;;;;;;;;;24.25;22.00;;;;;13.11;38.13;99112.38;5070584;28;8858;-73
2023/04/23 03:43:30;;;;;;;;;20.50;20.25;;;;;13.15;38.05;99109.59;5002247;28;8889;-74
2023/04/23 03:46:05;;;;;;;;;23.75;22.00;;;;;13.07;38.05;99109.91;5070029;28;8850;-75
2023/04/23 03:48:39;;;;;;;;;21.00;21.00;;;;;13.18;37.95;99114.78;5081452;28;8860;-74
2023/04/23 03:51:13;;;;;;;;;20.75;19.50;;;;;13.19;38.13;99113.88;5088513;28;8852;-77
2023/04/23 03:53:45;;;;;;;;;21.50;21.50;;;;;13.14;38.16;99108.75;5075233;28;8868;-75
2023/04/23 03:56:34;;;;;;;;;19.25;18.50;;;;;13.09;38.37;99103.66;5025633;28;8955;-75
2023/04/23 03:59:38;;;;;;;;;19.25;18.50;;;;;13.02;38.49;99114.53;5023864;28;8842;-75
2023/04/23 04:02:06;;;;;;;;;21.25;21.25;;;;;12.98;38.58;99108.50;5010336;28;8877;-75
2023/04/23 04:04:36;;;;;;;;;22.75;22.00;;;;;12.96;39.08;99114.72;4936268;28;8868;-76
2023/04/23 04:07:06;;;;;;;;;19.75;19.75;;;;;12.98;39.34;99100.59;4966781;28;8882;-74
2023/04/23 04:09:35;;;;;;;;;20.25;18.50;;;;;13.03;38.89;99113.59;4957755;28;8891;-76
2023/04/23 04:12:06;;;;;;;;;24.50;22.00;;;;;12.96;39.34;99106.81;4968192;28;9726;-77
2023/04/23 04:14:35;;;;;;;;;20.75;20.50;;;;;12.83;39.49;99109.91;4967796;28;9646;-77
2023/04/23 04:17:04;;;;;;;;;23.75;21.75;;;;;12.81;39.77;99109.09;4968072;28;8884;-75
2023/04/23 04:19:33;;;;;;;;;21.25;19.75;;;;;12.86;39.64;99104.53;4967769;28;8840;-75
2023/04/23 04:22:02;;;;;;;;;21.50;21.00;;;;;12.93;39.31;99110.44;4966939;28;8863;-73
2023/04/23 04:24:31;;;;;;;;;17.75;17.25;;;;;12.94;39.21;99106.91;4948396;28;8870;-74
2023/04/23 04:27:00;;;;;;;;;19.25;19.25;;;;;12.95;39.21;99105.09;4935059;28;9087;-74
2023/04/23 04:29:31;;;;;;;;;19.25;19.25;;;;;12.92;38.86;99109.59;4951677;28;9081;-75
2023/04/23 04:32:00;;;;;;;;;17.00;15.25;;;;;12.98;38.92;99115.56;4967940;28;8860;-73
2023/04/23 04:34:29;;;;;;;;;20.00;19.25;;;;;13.02;38.74;99115.38;5027781;28;8865;-75
2023/04/23 04:36:57;;;;;;;;;20.25;18.00;;;;;13.05;38.82;99117.03;5086783;28;8882;-74
2023/04/23 04:39:27;;;;;;;;;16.50;16.25;;;;;13.05;38.63;99117.91;5074670;28;9605;-74
2023/04/23 04:41:56;;;;;;;;;23.00;18.75;;;;;13.05;38.35;99115.25;5089013;28;8864;-74
2023/04/23 04:44:25;;;;;;;;;17.00;16.50;;;;;13.10;38.83;99113.28;5087680;28;8839;-76
2023/04/23 04:46:55;;;;;;;;;20.00;19.00;;;;;13.21;38.49;99112.88;5087395;28;8852;-75
2023/04/23 04:49:24;;;;;;;;;18.00;17.50;;;;;13.21;38.67;99119.94;5087574;28;8874;-75
2023/04/23 04:51:54;;;;;;;;;17.25;17.25;;;;;13.35;38.21;99120.25;5087611;28;8913;-74
2023/04/23 04:54:22;;;;;;;;;18.25;16.75;;;;;13.38;37.93;99117.50;5087302;28;8871;-75
2023/04/23 04:56:51;;;;;;;;;18.75;17.50;;;;;13.44;37.92;99113.75;5088786;28;8882;-75
2023/04/23 04:59:20;;;;;;;;;19.25;17.75;;;;;13.47;37.66;99125.06;5083413;28;8870;-75
2023/04/23 05:01:49;;;;;;;;;18.00;17.25;;;;;13.63;37.68;99113.88;5068113;28;9675;-75
2023/04/23 05:04:19;;;;;;;;;18.50;17.75;;;;;13.78;37.35;99120.31;5082018;28;9019;-75
2023/04/23 05:06:48;;;;;;;;;20.25;18.25;;;;;13.88;37.19;99106.72;5085499;28;8974;-76
2023/04/23 05:09:17;;;;;;;;;18.50;16.50;;;;;13.90;37.16;99109.28;5022125;28;8840;-75
2023/04/23 05:11:45;;;;;;;;;15.40;15.00;;;;;13.91;37.09;99099.59;5086993;28;8852;-76
2023/04/23 05:14:14;;;;;;;;;16.00;15.50;;;;;13.88;37.22;99108.47;5089156;28;8844;-77
2023/04/23 05:16:43;;;;;;;;;23.50;20.75;;;;;13.96;37.25;99116.09;5089125;28;8859;-77
2023/04/23 05:19:12;;;;;;;;;19.25;17.50;;;;;13.96;37.25;99109.03;5099310;28;8848;-73
2023/04/23 05:21:42;;;;;;;;;19.00;16.75;;;;;13.95;37.27;99107.31;5051871;28;8860;-74
2023/04/23 05:24:11;;;;;;;;;18.75;18.25;;;;;14.09;37.08;99112.88;5068906;28;9057;-75
2023/04/23 05:26:40;;;;;;;;;16.20;14.40;;;;;14.04;37.40;99109.56;5086933;28;8856;-75
2023/04/23 05:29:09;;;;;;;;;17.50;17.50;;;;;14.14;37.17;99107.38;5088067;28;8864;-73
2023/04/23 05:31:37;;;;;;;;;14.00;14.00;;;;;14.05;37.28;99103.38;5087767;28;8859;-74
2023/04/23 05:34:06;;;;;;;;;15.50;13.50;;;;;14.20;37.20;99108.91;5087394;28;8851;-74
2023/04/23 05:36:35;;;;;;;;;19.50;18.25;;;;;14.20;36.91;99106.25;5087036;28;8882;-74
2023/04/23 05:39:05;;;;;;;;;20.75;18.00;;;;;14.14;37.50;99117.94;5085809;28;8840;-75
2023/04/23 05:41:34;;;;;;;;;18.75;18.00;;;;;14.25;36.98;99113.06;5088537;28;8863;-74
2023/04/23 05:44:03;;;;;;;;;18.00;17.00;;;;;14.20;37.15;99106.25;5087898;28;8840;-75
2023/04/23 05:46:32;;;;;;;;;16.50;16.50;;;;;14.21;36.94;99111.50;5088003;28;8874;-75
2023/04/23 05:49:01;;;;;;;;;17.50;17.50;;;;;14.23;36.82;99108.78;5069244;28;8874;-75
2023/04/23 05:51:29;;;;;;;;;20.00;19.00;;;;;14.29;37.07;99113.81;5103154;28;8852;-74
2023/04/23 05:53:59;;;;;;;;;19.50;17.50;;;;;14.34;36.92;99113.59;5102930;28;8936;-76
2023/04/23 05:56:29;;;;;;;;;15.20;15.20;;;;;14.39;36.97;99104.53;5069283;28;8952;-75
2023/04/23 05:58:58;;;;;;;;;19.20;16.60;;;;;14.37;36.98;99114.31;5087719;28;9714;-73
2023/04/23 06:01:27;;;;;;;;;18.25;17.25;;;;;14.48;36.91;99113.84;5085964;28;9007;-75
2023/04/23 06:03:56;;;;;;;;;15.60;15.00;;;;;14.48;37.09;99106.78;5087050;28;8920;-74
2023/04/23 06:06:26;;;;;;;;;15.20;15.20;;;;;14.53;37.06;99109.22;5086472;28;8832;-75
2023/04/23 06:08:55;;;;;;;;;20.50;20.25;;;;;14.67;37.12;99111.25;5085919;28;8879;-75
2023/04/23 06:11:24;;;;;;;;;17.80;17.80;;;;;14.62;37.38;99105.28;5087909;28;8894;-74
2023/04/23 06:13:55;;;;;;;;;21.00;18.25;;;;;14.57;37.60;99102.03;5087816;28;8855;-74
2023/04/23 06:16:24;;;;;;;;;16.25;14.00;;;;;14.62;37.24;99108.81;5068062;28;8901;-74
2023/04/23 06:18:55;;;;;;;;;17.25;16.50;;;;;14.62;37.35;99107.94;5085711;28;9740;-75
2023/04/23 06:21:23;;;;;;;;;16.60;14.80;;;;;14.65;37.14;99107.81;5086478;28;8875;-76
2023/04/23 06:23:53;;;;;;;;;20.25;18.00;;;;;14.75;37.14;99108.28;5086346;28;8839;-72
2023/04/23 06:26:22;;;;;;;;;15.20;14.60;;;;;14.89;37.09;99107.69;5086511;28;9609;-74
2023/04/23 06:28:54;;;;;;;;;16.00;16.00;;;;;14.94;37.05;99109.16;5085541;28;8864;-76
2023/04/23 06:31:36;;;;;;;;;18.80;17.60;;;;;14.91;37.25;99106.66;5086304;28;9649;-74
2023/04/23 06:34:05;;;;;;;;;22.00;17.25;;;;;15.03;36.94;99107.88;5087402;28;8875;-76
2023/04/23 06:36:34;;;;;;;;;18.25;18.25;;;;;15.07;36.95;99104.16;5085002;28;8926;-76
2023/04/23 06:39:04;;;;;;;;;19.40;18.40;;;;;15.10;37.04;99100.53;5083933;28;8851;-75
2023/04/23 06:41:32;;;;;;;;;17.25;16.50;;;;;15.26;36.80;99101.50;5051267;28;8860;-75
2023/04/23 06:44:14;;;;;;;;;17.75;16.50;;;;;15.40;36.70;99101.72;5069034;28;8960;-72
2023/04/23 06:46:52;;;;;;;;;17.25;16.50;;;;;15.32;36.54;99092.41;5086806;28;8875;-74
2023/04/23 06:49:21;;;;;;;;;17.80;16.00;;;;;15.45;36.75;99104.13;5090098;28;8899;-75
2023/04/23 06:51:50;;;;;;;;;18.75;18.75;;;;;15.64;36.29;99104.13;5089911;28;8880;-74
2023/04/23 06:54:19;;;;;;;;;15.60;15.60;;;;;15.83;36.50;99104.06;5090200;28;8963;-76
2023/04/23 06:56:48;;;;;;;;;14.60;14.40;;;;;15.91;36.10;99098.41;5090965;28;8850;-74
2023/04/23 06:59:18;;;;;;;;;18.00;18.00;;;;;16.14;35.72;99099.91;5089732;28;8828;-75
2023/04/23 07:01:50;;;;;;;;;17.20;16.20;;;;;16.14;35.60;99103.41;5048800;28;8908;-74
2023/04/23 07:04:20;;;;;;;;;16.80;15.40;;;;;16.27;35.34;99108.94;5102001;28;8932;-74
2023/04/23 07:06:48;;;;;;;;;15.80;15.40;;;;;16.33;35.09;99105.09;5090871;28;8979;-73
2023/04/23 07:09:17;;;;;;;;;17.75;16.75;;;;;16.47;35.11;99097.31;5088751;28;8848;-75
2023/04/23 07:11:46;;;;;;;;;18.80;17.00;;;;;16.68;34.77;99108.59;5071967;28;8970;-74
2023/04/23 07:14:15;;;;;;;;;15.00;14.20;;;;;16.69;34.41;99109.44;5070504;28;8854;-75
2023/04/23 07:16:45;;;;;;;;;15.40;15.40;;;;;16.77;34.37;99105.44;5090254;28;8867;-75
2023/04/23 07:19:14;;;;;;;;;16.60;15.40;;;;;16.70;34.17;99104.06;5087636;28;9628;-75
2023/04/23 07:21:43;;;;;;;;;18.25;16.50;;;;;16.82;34.30;99107.84;5088318;28;8843;-75
2023/04/23 07:24:12;;;;;;;;;15.40;15.40;;;;;16.79;34.11;99106.19;5088481;28;8923;-75
2023/04/23 07:26:40;;;;;;;;;17.20;16.00;;;;;16.85;33.98;99104.16;5089282;28;8840;-75
2023/04/23 07:29:10;;;;;;;;;16.80;15.80;;;;;16.93;34.29;99104.63;5052859;28;8886;-74
2023/04/23 07:31:41;;;;;;;;;15.75;15.75;;;;;16.93;34.06;99104.63;5087781;28;8856;-74
2023/04/23 07:34:11;;;;;;;;;14.20;12.40;;;;;17.11;33.64;99102.75;5089868;28;8929;-74
2023/04/23 07:36:40;;;;;;;;;16.20;16.20;;;;;17.31;33.73;99097.22;5088768;28;10024;-75
2023/04/23 07:39:09;;;;;;;;;12.20;12.20;;;;;17.33;33.40;99092.69;5089070;28;9694;-74
2023/04/23 07:41:38;;;;;;;;;16.00;15.60;;;;;17.30;33.56;99110.59;5089485;28;8958;-74
2023/04/23 07:44:07;;;;;;;;;17.40;15.20;;;;;17.34;33.35;99101.50;5089472;28;8851;-75
2023/04/23 07:46:36;;;;;;;;;15.40;15.40;;;;;17.47;33.07;99099.84;5069311;28;8868;-75
2023/04/23 07:49:06;;;;;;;;;14.80;13.80;;;;;17.61;33.01;99100.88;5087064;28;8864;-75
2023/04/23 07:51:36;;;;;;;;;15.40;14.20;;;;;17.72;31.92;99096.66;5088183;28;8962;-78
2023/04/23 07:54:05;;;;;;;;;14.40;14.40;;;;;17.75;32.18;99100.94;5097880;28;8823;-75
2023/04/23 07:56:35;;;;;;;;;18.40;17.60;;;;;17.78;32.16;99108.75;5085357;28;8848;-75
2023/04/23 07:59:04;;;;;;;;;17.60;17.60;;;;;17.83;32.29;99104.00;5079570;28;9005;-75
2023/04/23 08:01:33;;;;;;;;;18.40;18.40;;;;;18.08;31.91;99100.81;5087261;28;8879;-75
2023/04/23 08:04:02;;;;;;;;;15.80;15.80;;;;;18.19;31.57;99093.97;5089489;28;8867;-74
2023/04/23 08:06:34;;;;;;;;;15.60;15.60;;;;;18.29;31.31;99105.78;5089194;28;8828;-75
2023/04/23 08:09:05;;;;;;;;;15.00;13.60;;;;;18.38;31.33;99107.03;5076524;28;8856;-75
2023/04/23 08:11:34;;;;;;;;;15.80;15.80;;;;;18.39;31.23;99095.47;5090095;28;8974;-74
2023/04/23 08:14:03;;;;;;;;;16.40;15.20;;;;;18.40;31.05;99097.16;5089261;28;8856;-78
2023/04/23 08:16:32;;;;;;;;;15.60;14.60;;;;;18.31;31.08;99095.94;5069148;28;8852;-74
2023/04/23 08:19:04;;;;;;;;;14.80;13.60;;;;;18.50;30.80;99099.16;5089341;28;8864;-77
2023/04/23 08:21:36;;;;;;;;;16.20;15.40;;;;;18.72;30.47;99088.06;5086499;28;8843;-77
2023/04/23 08:24:07;;;;;;;;;13.60;13.60;;;;;18.64;30.33;99094.81;5012392;28;8874;-76
2023/04/23 08:26:36;;;;;;;;;19.20;18.00;;;;;18.71;30.31;99094.31;5088021;28;8860;-75
2023/04/23 08:29:05;;;;;;;;;12.20;11.00;;;;;18.81;30.23;99093.78;5089054;28;8856;-76
2023/04/23 08:31:37;;;;;;;;;8.80;8.80;;;;;18.72;29.73;99089.84;5087505;28;8882;-75
2023/04/23 08:34:06;;;;;;;;;16.60;16.60;;;;;18.83;29.68;99090.06;5088796;28;8863;-76
2023/04/23 08:36:35;;;;;;;;;15.20;14.20;;;;;18.90;29.52;99090.56;5088502;28;9601;-73
2023/04/23 08:39:04;;;;;;;;;14.60;14.40;;;;;18.95;29.47;99088.47;5088063;28;8844;-76
2023/04/23 08:41:39;;;;;;;;;16.60;15.60;;;;;19.00;29.15;99086.34;5089125;28;8872;-77
2023/04/23 08:44:13;;;;;;;;;15.00;15.00;;;;;19.05;28.99;99086.91;5054040;28;8875;-75
2023/04/23 08:46:44;;;;;;;;;16.80;15.80;;;;;19.07;28.71;99090.34;5088575;28;8860;-76
2023/04/23 08:49:16;;;;;;;;;11.60;11.60;;;;;19.25;28.50;99087.44;5059170;28;8859;-76
2023/04/23 08:51:49;;;;;;;;;13.60;13.60;;;;;19.31;29.04;99079.06;5092944;28;8933;-75
2023/04/23 08:54:24;;;;;;;;;12.60;11.80;;;;;19.37;28.87;99086.66;5087176;28;8851;-75
2023/04/23 08:56:56;;;;;;;;;13.00;12.40;;;;;19.47;28.06;99077.09;5088570;28;8871;-76
2023/04/23 08:59:26;;;;;;;;;16.80;15.40;;;;;19.38;27.71;99080.34;5088752;28;8828;-76
2023/04/23 09:01:55;;;;;;;;;10.40;10.40;;;;;19.50;27.68;99084.91;5088326;28;8848;-78
2023/04/23 09:04:25;;;;;;;;;16.50;13.75;;;;;19.69;27.60;99073.91;5088678;28;8839;-70
2023/04/23 09:06:55;;;;;;;;;18.40;13.40;;;;;19.83;28.05;99072.97;5086940;28;8852;-71
2023/04/23 09:09:27;;;;;;;;;15.20;14.80;;;;;19.66;27.80;99076.78;5087353;28;8856;-71
2023/04/23 09:11:58;;;;;;;;;14.40;14.20;;;;;19.72;27.67;99075.50;5087164;28;9741;-70
2023/04/23 09:14:27;;;;;;;;;15.60;15.60;;;;;19.79;27.46;99083.97;5086437;28;8852;-70
2023/04/23 09:16:55;;;;;;;;;13.40;13.40;;;;;19.82;27.43;99073.06;5087303;28;8868;-70
2023/04/23 09:19:27;;;;;;;;;10.80;10.80;;;;;19.88;27.85;99068.19;5087613;28;8851;-71
2023/04/23 09:21:56;;;;;;;;;17.50;16.50;;;;;19.71;27.84;99063.16;5086464;28;8875;-73
2023/04/23 09:24:25;;;;;;;;;15.25;14.25;;;;;19.74;27.36;99067.41;5086837;28;8831;-72
2023/04/23 09:26:55;;;;;;;;;13.60;13.40;;;;;19.77;27.76;99060.06;5086832;28;8868;-72
2023/04/23 09:29:26;;;;;;;;;18.00;16.50;;;;;19.83;27.77;99059.66;5087683;28;8870;-73
2023/04/23 09:31:56;;;;;;;;;15.00;15.00;;;;;19.83;27.83;99064.97;5087254;28;8875;-73
2023/04/23 09:34:26;;;;;;;;;15.00;15.00;;;;;20.00;27.65;99061.16;5087655;28;9616;-71
2023/04/23 09:36:55;;;;;;;;;14.80;13.80;;;;;20.07;27.69;99056.28;5086883;28;8873;-73
2023/04/23 09:39:24;;;;;;;;;16.00;16.00;;;;;20.08;27.90;99052.66;5085872;28;8936;-72
2023/04/23 09:41:53;;;;;;;;;17.20;15.20;;;;;20.20;27.32;99054.47;5086466;28;8879;-73
2023/04/23 09:44:22;;;;;;;;;14.20;13.60;;;;;20.21;27.25;99050.84;5087476;28;8824;-76
2023/04/23 09:46:52;;;;;;;;;14.40;14.40;;;;;20.37;27.06;99037.34;5087058;28;8998;-72
2023/04/23 09:49:22;;;;;;;;;16.00;15.60;;;;;20.34;25.77;99037.53;5085972;28;8863;-76
2023/04/23 09:51:51;;;;;;;;;17.40;16.00;;;;;20.37;25.31;99048.00;5086370;28;8879;-73
2023/04/23 09:54:23;;;;;;;;;15.60;15.60;;;;;20.53;25.53;99045.09;5098833;28;8842;-72
2023/04/23 09:56:55;;;;;;;;;14.60;13.60;;;;;20.46;25.67;99038.47;5111073;27;8932;-73
2023/04/23 09:59:26;;;;;;;;;18.00;17.40;;;;;20.50;25.65;99037.34;5086677;28;9632;-74
2023/04/23 10:02:17;;;;;;;;;13.40;13.40;;;;;20.61;25.38;99033.88;5086638;28;8832;-73
2023/04/23 10:04:51;;;;;;;;;12.60;12.00;;;;;20.73;24.98;99026.81;5087230;28;8862;-72
2023/04/23 10:07:32;;;;;;;;;12.20;12.20;;;;;20.73;25.54;99021.47;5035754;28;8952;-73
2023/04/23 10:10:01;;;;;;;;;17.75;17.75;;;;;20.72;25.39;99028.63;5086960;28;8847;-73
2023/04/23 10:12:30;;;;;;;;;18.00;17.40;;;;;20.84;24.05;99032.22;5086647;28;8855;-72
2023/04/23 10:15:19;;;;;;;;;14.00;13.20;;;;;20.97;24.01;99025.06;5031221;28;9668;-76
2023/04/23 10:17:50;;;;;;;;;16.20;15.00;;;;;20.91;23.34;99019.31;5020005;28;8865;-76
2023/04/23 10:20:21;;;;;;;;;13.60;13.00;;;;;20.95;24.20;99016.31;5032521;28;8888;-76
2023/04/23 10:22:54;;;;;;;;;15.00;15.00;;;;;20.93;23.64;99022.75;5028524;28;8909;-78
2023/04/23 10:25:25;;;;;;;;;11.00;11.00;;;;;21.08;24.55;99018.94;5048192;28;8874;-76
2023/04/23 10:27:56;;;;;;;;;16.40;15.00;;;;;21.16;23.37;99005.03;5030738;28;9746;-75
2023/04/23 10:30:25;;;;;;;;;15.80;14.60;;;;;21.36;22.84;99008.91;5044191;28;9041;-76
2023/04/23 10:32:57;;;;;;;;;18.60;16.00;;;;;21.42;22.63;99000.41;5010863;28;8870;-77
2023/04/23 10:35:26;;;;;;;;;15.80;15.80;;;;;21.52;22.40;99006.78;5011502;28;9430;-75
2023/04/23 10:37:55;;;;;;;;;15.60;15.20;;;;;21.73;22.71;98998.13;4986459;28;8891;-77
2023/04/23 10:40:32;;;;;;;;;15.00;15.00;;;;;22.07;22.03;98984.81;4992181;28;8856;-73
2023/04/23 10:43:01;;;;;;;;;16.50;16.00;;;;;21.97;21.63;98990.03;5008197;28;8891;-76
2023/04/23 10:45:31;;;;;;;;;17.20;16.00;;;;;22.14;21.03;98992.25;5027686;28;8852;-75
2023/04/23 10:48:03;;;;;;;;;15.20;14.20;;;;;22.39;21.25;98972.47;5046588;28;9590;-77
2023/04/23 10:50:36;;;;;;;;;15.80;15.00;;;;;22.52;20.82;98980.34;5048266;28;8976;-74
2023/04/23 10:53:19;;;;;;;;;15.80;15.80;;;;;22.77;20.38;98975.75;5045618;28;8943;-77
2023/04/23 10:55:48;;;;;;;;;12.40;12.40;;;;;22.83;20.98;98974.34;5047737;28;8982;-76
2023/04/23 10:58:16;;;;;;;;;14.40;14.40;;;;;22.68;20.13;98971.13;5018280;28;8944;-77
2023/04/23 11:00:46;;;;;;;;;19.25;18.25;;;;;22.81;20.14;98972.66;5047565;28;8858;-76
2023/04/23 11:03:30;;;;;;;;;12.40;12.40;;;;;23.18;20.07;98969.66;5045713;28;8860;-74
2023/04/23 11:06:02;;;;;;;;;16.00;14.80;;;;;23.12;20.20;98958.63;5047300;28;8867;-75
2023/04/23 11:08:32;;;;;;;;;15.00;15.00;;;;;23.42;20.48;98962.41;5046509;28;9612;-76
2023/04/23 11:11:02;;;;;;;;;14.75;14.75;;;;;23.56;20.30;98956.75;5075381;28;8852;-75
2023/04/23 11:13:31;;;;;;;;;14.20;13.20;;;;;23.53;20.13;98970.44;5088654;28;9641;-75
2023/04/23 11:16:14;;;;;;;;;16.00;15.20;;;;;23.58;20.78;98960.13;5058143;27;8871;-77
2023/04/23 11:18:58;;;;;;;;;16.00;16.00;;;;;23.57;19.98;98963.81;5089597;28;8863;-76
2023/04/23 11:22:02;;;;;;;;;16.75;16.75;;;;;23.88;20.31;98953.13;5090355;28;8968;-77
2023/04/23 11:24:33;;;;;;;;;17.00;16.00;;;;;23.88;20.28;98969.25;5082569;28;8990;-77
2023/04/23 11:27:05;;;;;;;;;19.00;17.25;;;;;24.05;19.59;98959.75;5088858;28;8820;-77
2023/04/23 11:29:34;;;;;;;;;19.75;18.00;;;;;24.31;20.17;98952.13;5089615;28;8856;-74
2023/04/23 11:32:04;;;;;;;;;16.00;16.00;;;;;24.55;19.12;98959.84;5089037;28;8883;-77
2023/04/23 11:34:35;;;;;;;;;14.00;14.00;;;;;24.91;18.66;98954.88;5088105;28;8875;-77
2023/04/23 11:37:04;;;;;;;;;17.75;17.75;;;;;25.16;18.03;98958.03;5103158;28;8869;-76
2023/04/23 11:39:33;;;;;;;;;15.25;15.25;;;;;25.40;18.51;98953.13;5089700;28;8978;-78